createdAt,value
2019-05-23T00:00:53.294Z,14.95
2019-05-23T00:03:23.537Z,14.73
2019-05-23T00:05:53.541Z,14.47
2019-05-23T00:08:23.811Z,15.65
2019-05-23T00:10:54.290Z,14.93
2019-05-23T00:13:24.957Z,15.08
2019-05-23T00:15:55.443Z,14.58
2019-05-23T00:18:25.619Z,16.02
2019-05-23T00:20:54.312Z,15.53
2019-05-23T00:23:22.964Z,16.30
2019-05-23T00:25:52.687Z,16.20
2019-05-23T00:28:22.838Z,15.40
2019-05-23T00:30:52.738Z,14.10
2019-05-23T00:33:25.471Z,14.60
2019-05-23T00:35:53.763Z,15.30
2019-05-23T00:38:22.270Z,14.30
2019-05-23T00:40:52.897Z,14.98
2019-05-23T00:43:22.303Z,15.18
2019-05-23T00:45:50.628Z,16.20
2019-05-23T00:48:20.155Z,14.85
2019-05-23T00:50:48.914Z,14.60
2019-05-23T00:53:17.275Z,16.52
2019-05-23T00:55:46.993Z,15.20
2019-05-23T00:58:16.833Z,14.65
2019-05-23T01:00:45.481Z,14.65
2019-05-23T01:03:14.513Z,14.03
2019-05-23T01:05:42.863Z,14.63
2019-05-23T01:08:11.489Z,16.50
2019-05-23T01:10:40.273Z,15.15
2019-05-23T01:13:10.337Z,15.75
2019-05-23T01:15:39.514Z,16.02
2019-05-23T01:18:09.384Z,16.17
2019-05-23T01:20:55.412Z,16.52
2019-05-23T01:23:25.313Z,16.12
2019-05-23T01:25:53.852Z,16.20
2019-05-23T01:28:22.678Z,16.05
2019-05-23T01:30:52.943Z,16.67
2019-05-23T01:33:21.557Z,17.02
2019-05-23T01:35:50.660Z,16.25
2019-05-23T01:38:20.616Z,16.00
2019-05-23T01:40:49.240Z,15.40
2019-05-23T01:43:18.021Z,14.83
2019-05-23T01:45:46.284Z,14.07
2019-05-23T01:48:14.996Z,14.18
2019-05-23T01:50:43.250Z,14.15
2019-05-23T01:53:11.906Z,13.55
2019-05-23T01:55:41.798Z,14.85
2019-05-23T01:58:10.063Z,14.38
2019-05-23T02:00:38.322Z,14.07
2019-05-23T02:03:06.770Z,14.90
2019-05-23T02:05:35.077Z,16.07
2019-05-23T02:08:04.129Z,16.23
2019-05-23T02:10:32.532Z,16.55
2019-05-23T02:13:00.858Z,16.70
2019-05-23T02:15:30.424Z,17.00
2019-05-23T02:17:59.153Z,17.32
2019-05-23T02:20:28.523Z,17.02
2019-05-23T02:22:56.855Z,17.37
2019-05-23T02:25:26.488Z,15.43
2019-05-23T02:27:55.689Z,15.23
2019-05-23T02:30:33.737Z,15.13
2019-05-23T02:32:54.661Z,15.35
2019-05-23T02:35:22.998Z,15.13
2019-05-23T02:37:52.926Z,15.03
2019-05-23T02:40:39.550Z,15.72
2019-05-23T02:43:21.611Z,15.23
2019-05-23T02:45:57.726Z,15.25
2019-05-23T02:48:35.455Z,15.78
2019-05-23T02:51:07.049Z,15.30
2019-05-23T02:53:35.379Z,15.10
2019-05-23T02:56:05.849Z,15.00
2019-05-23T02:58:57.498Z,14.43
2019-05-23T03:01:42.535Z,14.73
2019-05-23T03:04:12.482Z,15.13
2019-05-23T03:06:41.501Z,14.98
2019-05-23T03:09:11.845Z,15.32
2019-05-23T03:11:42.116Z,14.20
2019-05-23T03:14:11.607Z,14.65
2019-05-23T03:16:40.871Z,14.80
2019-05-23T03:19:21.941Z,14.20
2019-05-23T03:21:53.300Z,15.13
2019-05-23T03:24:21.552Z,14.50
2019-05-23T03:27:01.428Z,15.00
2019-05-23T03:29:31.462Z,15.08
2019-05-23T03:32:13.307Z,14.98
2019-05-23T03:34:43.273Z,13.95
2019-05-23T03:37:11.572Z,15.15
2019-05-23T03:39:39.850Z,14.35
2019-05-23T03:42:09.434Z,15.20
2019-05-23T03:44:38.968Z,15.72
2019-05-23T03:47:09.125Z,16.17
2019-05-23T03:49:39.234Z,15.65
2019-05-23T03:52:10.225Z,16.02
2019-05-23T03:54:39.953Z,15.88
2019-05-23T03:57:08.892Z,16.07
2019-05-23T03:59:38.274Z,15.23
2019-05-23T04:02:07.307Z,15.78
2019-05-23T04:04:36.740Z,15.00
2019-05-23T04:07:05.245Z,15.68
2019-05-23T04:09:33.764Z,15.28
2019-05-23T04:12:02.334Z,15.70
2019-05-23T04:14:30.637Z,15.13
2019-05-23T04:16:59.404Z,16.00
2019-05-23T04:19:27.807Z,16.00
2019-05-23T04:21:56.057Z,15.40
2019-05-23T04:24:24.326Z,15.65
2019-05-23T04:26:52.650Z,15.03
2019-05-23T04:29:21.061Z,14.30
2019-05-23T04:32:06.251Z,16.02
2019-05-23T04:34:19.947Z,16.70
2019-05-23T04:36:48.269Z,16.55
2019-05-23T04:39:16.530Z,17.25
2019-05-23T04:41:45.159Z,17.30
2019-05-23T04:44:13.563Z,16.80
2019-05-23T04:46:41.830Z,17.30
2019-05-23T04:49:11.137Z,17.45
2019-05-23T04:51:39.739Z,17.73
2019-05-23T04:54:08.047Z,17.77
2019-05-23T04:56:36.450Z,18.05
2019-05-23T04:59:05.296Z,18.62
2019-05-23T05:01:34.494Z,17.60
2019-05-23T05:04:03.520Z,16.67
2019-05-23T05:06:31.853Z,16.25
2019-05-23T05:09:00.369Z,17.75
2019-05-23T05:11:30.603Z,17.45
2019-05-23T05:13:59.428Z,18.35
2019-05-23T05:16:27.677Z,19.12
2019-05-23T05:18:55.952Z,20.75
2019-05-23T05:21:24.286Z,19.92
2019-05-23T05:23:52.620Z,20.23
2019-05-23T05:26:22.573Z,19.92
2019-05-23T05:28:52.020Z,19.35
2019-05-23T05:31:20.938Z,20.60
2019-05-23T05:33:49.229Z,20.75
2019-05-23T05:36:17.476Z,20.23
2019-05-23T05:38:45.760Z,18.92
2019-05-23T05:41:14.663Z,19.10
2019-05-23T05:43:42.903Z,19.62
2019-05-23T05:46:11.248Z,19.90
2019-05-23T05:48:39.548Z,19.25
2019-05-23T05:51:07.844Z,20.25
2019-05-23T05:53:36.095Z,19.75
2019-05-23T05:56:04.627Z,22.15
2019-05-23T05:58:33.058Z,21.35
2019-05-23T06:01:02.854Z,19.37
2019-05-23T06:03:31.440Z,18.25
2019-05-23T06:06:07.388Z,18.80
2019-05-23T06:08:39.675Z,19.20
2019-05-23T06:11:08.603Z,20.30
2019-05-23T06:13:36.929Z,18.77
2019-05-23T06:16:05.273Z,19.75
2019-05-23T06:18:34.734Z,21.17
2019-05-23T06:21:06.226Z,20.72
2019-05-23T06:23:34.739Z,20.80
2019-05-23T06:26:02.997Z,19.73
2019-05-23T06:28:31.630Z,20.80
2019-05-23T06:31:00.876Z,18.95
2019-05-23T06:33:30.751Z,18.98
2019-05-23T06:35:59.927Z,18.82
2019-05-23T06:38:29.124Z,18.90
2019-05-23T06:40:57.646Z,19.30
2019-05-23T06:43:26.155Z,17.92
2019-05-23T06:45:54.768Z,18.23
2019-05-23T06:48:23.174Z,18.45
2019-05-23T06:50:51.433Z,18.10
2019-05-23T06:53:19.682Z,17.10
2019-05-23T06:55:47.966Z,18.25
2019-05-23T06:58:16.696Z,17.05
2019-05-23T07:00:45.215Z,18.32
2019-05-23T07:03:13.697Z,16.57
2019-05-23T07:05:42.310Z,16.85
2019-05-23T07:08:10.582Z,17.82
2019-05-23T07:10:39.010Z,15.98
2019-05-23T07:13:07.241Z,15.88
2019-05-23T07:15:35.798Z,16.07
2019-05-23T07:18:04.075Z,15.58
2019-05-23T07:20:32.320Z,14.55
2019-05-23T07:23:00.950Z,14.70
2019-05-23T07:25:29.675Z,14.23
2019-05-23T07:27:58.690Z,13.38
2019-05-23T07:30:27.291Z,13.62
2019-05-23T07:32:56.046Z,16.37
2019-05-23T07:35:24.477Z,15.88
2019-05-23T07:37:52.742Z,15.53
2019-05-23T07:40:21.555Z,12.98
2019-05-23T07:42:49.815Z,14.00
2019-05-23T07:45:39.991Z,14.15
2019-05-23T07:48:08.025Z,14.10
2019-05-23T07:50:36.541Z,12.03
2019-05-23T07:53:05.227Z,10.75
2019-05-23T07:55:37.858Z,9.78
2019-05-23T07:58:07.439Z,10.20
2019-05-23T08:00:37.430Z,13.68
2019-05-23T08:03:06.147Z,8.90
2019-05-23T08:05:34.570Z,9.18
2019-05-23T08:08:03.054Z,9.03
2019-05-23T08:10:34.199Z,9.95
2019-05-23T08:13:01.862Z,10.25
2019-05-23T08:15:31.020Z,9.90
2019-05-23T08:17:59.423Z,9.30
2019-05-23T08:20:28.247Z,8.85
2019-05-23T08:22:56.501Z,8.43
2019-05-23T08:25:24.777Z,9.08
2019-05-23T08:27:53.166Z,9.78
2019-05-23T08:30:21.773Z,9.20
2019-05-23T08:32:50.053Z,8.63
2019-05-23T08:35:18.372Z,9.10
2019-05-23T08:37:46.808Z,8.55
2019-05-23T08:40:15.706Z,8.33
2019-05-23T08:42:44.354Z,8.80
2019-05-23T08:45:12.633Z,8.78
2019-05-23T08:47:40.896Z,9.00
2019-05-23T08:50:09.263Z,7.90
2019-05-23T08:52:37.525Z,8.98
2019-05-23T08:55:09.043Z,9.20
2019-05-23T08:57:37.678Z,8.43
2019-05-23T09:00:06.501Z,9.10
2019-05-23T09:02:35.818Z,8.48
2019-05-23T09:05:06.788Z,8.50
2019-05-23T09:07:35.251Z,10.40
2019-05-23T09:10:06.462Z,10.18
2019-05-23T09:12:34.948Z,9.38
2019-05-23T09:15:04.319Z,9.48
2019-05-23T09:17:49.717Z,10.23
2019-05-23T09:20:03.026Z,8.88
2019-05-23T09:22:31.355Z,8.40
2019-05-23T09:24:59.901Z,8.45
2019-05-23T09:27:28.204Z,9.00
2019-05-23T09:29:56.481Z,8.75
2019-05-23T09:32:25.009Z,9.18
2019-05-23T09:34:53.277Z,8.90
2019-05-23T09:37:22.324Z,9.38
2019-05-23T09:39:50.656Z,8.50
2019-05-23T09:42:18.931Z,9.38
2019-05-23T09:44:47.277Z,8.38
2019-05-23T09:47:15.531Z,8.75
2019-05-23T09:49:53.840Z,8.48
2019-05-23T09:52:14.329Z,9.30
2019-05-23T09:54:42.621Z,9.25
2019-05-23T09:57:11.960Z,9.38
2019-05-23T09:59:40.216Z,9.25
2019-05-23T10:02:08.858Z,8.40
2019-05-23T10:04:37.108Z,7.92
2019-05-23T10:07:05.384Z,8.60
2019-05-23T10:09:33.722Z,9.00
2019-05-23T10:12:01.994Z,8.60
2019-05-23T10:14:31.909Z,8.50
2019-05-23T10:17:00.189Z,7.80
2019-05-23T10:19:28.447Z,8.48
2019-05-23T10:21:56.718Z,7.92
2019-05-23T10:24:24.954Z,8.13
2019-05-23T10:26:53.273Z,8.68
2019-05-23T10:29:21.550Z,9.28
2019-05-23T10:31:49.786Z,8.90
2019-05-23T10:34:18.037Z,9.73
2019-05-23T10:36:46.367Z,8.75
2019-05-23T10:39:14.624Z,8.38
2019-05-23T10:41:43.442Z,8.55
2019-05-23T10:44:11.774Z,7.95
2019-05-23T10:46:40.195Z,7.67
2019-05-23T10:49:08.807Z,7.65
2019-05-23T10:51:37.090Z,8.03
2019-05-23T10:54:05.691Z,7.42
2019-05-23T10:56:34.365Z,7.78
2019-05-23T10:59:02.673Z,7.62
2019-05-23T11:01:30.939Z,7.22
2019-05-23T11:03:59.166Z,7.20
2019-05-23T11:06:27.836Z,6.95
2019-05-23T11:08:56.381Z,7.35
2019-05-23T11:11:24.887Z,7.00
2019-05-23T11:13:53.234Z,7.72
2019-05-23T11:16:22.270Z,8.05
2019-05-23T11:18:50.616Z,8.08
2019-05-23T11:21:18.909Z,7.10
2019-05-23T11:23:54.997Z,7.12
2019-05-23T11:26:23.314Z,6.65
2019-05-23T11:28:51.590Z,6.72
2019-05-23T11:31:21.524Z,6.72
2019-05-23T11:33:49.885Z,7.75
2019-05-23T11:36:33.838Z,8.28
2019-05-23T11:38:48.294Z,7.50
2019-05-23T11:41:16.535Z,7.28
2019-05-23T11:43:45.553Z,7.37
2019-05-23T11:46:15.479Z,7.33
2019-05-23T11:48:43.744Z,6.78
2019-05-23T11:51:12.014Z,7.30
2019-05-23T11:53:40.251Z,7.20
2019-05-23T11:56:08.565Z,6.08
2019-05-23T11:58:40.139Z,7.85
2019-05-23T12:01:19.902Z,7.80
2019-05-23T12:03:42.092Z,28.05
2019-05-23T12:06:10.473Z,11.10
2019-05-23T12:08:38.727Z,7.17
2019-05-23T12:11:06.993Z,6.80
2019-05-23T12:13:35.235Z,7.17
2019-05-23T12:16:03.880Z,6.97
2019-05-23T12:18:32.182Z,7.47
2019-05-23T12:21:00.464Z,8.00
2019-05-23T12:23:28.683Z,7.08
2019-05-23T12:25:56.998Z,6.78
2019-05-23T12:28:25.334Z,6.42
2019-05-23T12:30:53.606Z,6.72
2019-05-23T12:33:21.912Z,6.42
2019-05-23T12:35:56.610Z,6.62
2019-05-23T12:38:24.927Z,6.33
2019-05-23T12:40:55.567Z,6.55
2019-05-23T12:43:23.834Z,6.15
2019-05-23T12:45:52.097Z,6.28
2019-05-23T12:48:29.664Z,7.12
2019-05-23T12:51:02.359Z,6.65
2019-05-23T12:56:01.643Z,6.22
2019-05-23T12:58:30.124Z,6.37
2019-05-23T13:01:02.763Z,6.20
2019-05-23T13:03:31.004Z,6.15
2019-05-23T13:05:59.290Z,5.92
2019-05-23T13:08:27.626Z,6.03
2019-05-23T13:10:55.979Z,6.28
2019-05-23T13:13:24.422Z,5.72
2019-05-23T13:15:52.727Z,6.00
2019-05-23T13:18:21.284Z,5.92
2019-05-23T13:20:50.111Z,5.87
2019-05-23T13:23:21.066Z,6.45
2019-05-23T13:25:55.999Z,7.30
2019-05-23T13:28:28.576Z,7.37
2019-05-23T13:33:45.178Z,6.78
2019-05-23T13:36:13.465Z,7.35
2019-05-23T13:38:42.191Z,6.10
2019-05-23T13:41:10.451Z,5.40
2019-05-23T13:43:38.756Z,6.15
2019-05-23T13:46:07.387Z,7.20
2019-05-23T13:48:35.646Z,6.70
2019-05-23T13:51:03.917Z,6.45
2019-05-23T13:53:32.527Z,6.28
2019-05-23T13:56:00.810Z,6.17
2019-05-23T13:58:29.540Z,6.37
2019-05-23T14:00:59.898Z,5.75
2019-05-23T14:03:28.664Z,6.03
2019-05-23T14:05:57.085Z,6.33
2019-05-23T14:08:25.319Z,5.72
2019-05-23T14:10:53.620Z,5.80
2019-05-23T14:13:22.389Z,6.15
2019-05-23T14:15:52.412Z,6.67
2019-05-23T14:18:22.666Z,6.28
2019-05-23T14:20:50.909Z,5.60
2019-05-23T14:23:26.761Z,12.58
2019-05-23T14:25:55.378Z,10.85
2019-05-23T14:28:23.819Z,6.72
2019-05-23T14:30:56.717Z,6.70
2019-05-23T14:35:56.137Z,5.70
2019-05-23T14:38:30.966Z,8.60
2019-05-23T14:40:54.628Z,5.30
2019-05-23T14:43:27.036Z,6.37
2019-05-23T14:46:12.172Z,5.58
2019-05-23T14:48:48.043Z,6.42
2019-05-23T14:51:32.836Z,6.50
2019-05-23T14:54:08.562Z,6.08
2019-05-23T14:56:38.078Z,5.30
2019-05-23T14:59:06.421Z,5.12
2019-05-23T15:01:35.292Z,9.45
2019-05-23T15:04:04.489Z,5.62
2019-05-23T15:06:32.983Z,7.05
2019-05-23T15:09:01.226Z,5.20
2019-05-23T15:11:29.665Z,5.60
2019-05-23T15:13:57.912Z,5.78
2019-05-23T15:16:26.325Z,6.00
2019-05-23T15:18:54.652Z,5.92
2019-05-23T15:21:22.892Z,5.47
2019-05-23T15:23:51.183Z,5.95
2019-05-23T15:26:23.558Z,6.40
2019-05-23T15:28:49.460Z,5.30
2019-05-23T15:31:18.096Z,4.55
2019-05-23T15:33:46.442Z,4.75
2019-05-23T15:36:14.687Z,4.53
2019-05-23T15:38:42.956Z,5.05
2019-05-23T15:41:11.222Z,4.90
2019-05-23T15:43:40.309Z,4.28
2019-05-23T15:46:08.535Z,4.45
2019-05-23T15:48:36.805Z,3.90
2019-05-23T15:51:07.139Z,3.65
2019-05-23T15:53:37.082Z,5.75
2019-05-23T15:56:25.801Z,6.75
2019-05-23T15:58:38.642Z,4.53
2019-05-23T16:01:11.405Z,4.10
2019-05-23T16:03:50.663Z,3.95
2019-05-23T16:06:20.558Z,4.75
2019-05-23T16:08:48.775Z,4.60
2019-05-23T16:11:17.753Z,4.17
2019-05-23T16:13:46.491Z,4.15
2019-05-23T16:16:14.760Z,7.40
2019-05-23T16:18:43.007Z,13.45
2019-05-23T16:21:12.108Z,6.92
2019-05-23T16:23:40.436Z,4.87
2019-05-23T16:26:11.565Z,4.45
2019-05-23T16:28:38.717Z,4.30
2019-05-23T16:31:06.974Z,4.12
2019-05-23T16:33:35.291Z,4.00
2019-05-23T16:36:03.712Z,4.87
2019-05-23T16:38:31.950Z,4.50
2019-05-23T16:41:00.199Z,4.78
2019-05-23T16:43:28.426Z,4.80
2019-05-23T16:45:56.692Z,5.03
2019-05-23T16:48:25.013Z,5.33
2019-05-23T16:50:53.370Z,4.60
2019-05-23T16:53:22.728Z,5.15
2019-05-23T16:55:52.647Z,5.50
2019-05-23T16:58:37.762Z,4.90
2019-05-23T17:01:23.514Z,4.90
2019-05-23T17:03:57.788Z,4.87
2019-05-23T17:06:39.716Z,4.87
2019-05-23T17:09:31.614Z,9.25
2019-05-23T17:12:05.443Z,5.17
2019-05-23T17:14:44.450Z,4.45
2019-05-23T17:17:17.184Z,4.67
2019-05-23T17:19:53.306Z,4.15
2019-05-23T17:22:26.135Z,4.25
2019-05-23T17:25:02.247Z,4.35
2019-05-23T17:27:34.852Z,4.87
2019-05-23T17:30:18.296Z,4.33
2019-05-23T17:32:46.542Z,4.55
2019-05-23T17:35:14.811Z,4.62
2019-05-23T17:37:43.527Z,4.92
2019-05-23T17:40:24.545Z,4.67
2019-05-23T17:42:41.824Z,5.12
2019-05-23T17:45:14.017Z,5.08
2019-05-23T17:47:41.902Z,4.70
2019-05-23T17:50:10.164Z,5.08
2019-05-23T17:52:38.422Z,4.90
2019-05-23T17:55:06.859Z,4.53
2019-05-23T17:57:35.189Z,4.55
2019-05-23T18:00:05.815Z,4.78
2019-05-23T18:02:34.252Z,4.28
2019-05-23T18:05:02.951Z,5.28
2019-05-23T18:07:31.880Z,4.60
2019-05-23T18:10:00.199Z,4.42
2019-05-23T18:12:28.463Z,4.20
2019-05-23T18:14:56.716Z,4.72
2019-05-23T18:17:25.566Z,4.28
2019-05-23T18:19:53.843Z,4.20
2019-05-23T18:22:22.595Z,4.10
2019-05-23T18:24:50.855Z,3.42
2019-05-23T18:27:19.666Z,3.83
2019-05-23T18:29:48.313Z,3.77
2019-05-23T18:32:18.189Z,3.60
2019-05-23T18:34:47.314Z,4.05
2019-05-23T18:37:15.545Z,3.77
2019-05-23T18:39:43.961Z,3.87
2019-05-23T18:42:12.597Z,3.67
2019-05-23T18:44:41.215Z,3.50
2019-05-23T18:47:17.155Z,3.30
2019-05-23T18:49:45.420Z,3.25
2019-05-23T18:52:14.153Z,3.33
2019-05-23T18:54:42.412Z,3.12
2019-05-23T18:57:11.273Z,3.40
2019-05-23T18:59:44.610Z,9.40
2019-05-23T19:02:12.850Z,11.48
2019-05-23T19:04:41.190Z,20.77
2019-05-23T19:07:09.529Z,10.95
2019-05-23T19:09:38.476Z,6.85
2019-05-23T19:12:06.808Z,5.00
2019-05-23T19:14:35.128Z,20.72
2019-05-23T19:17:04.114Z,9.40
2019-05-23T19:19:33.042Z,4.80
2019-05-23T19:22:01.306Z,3.67
2019-05-23T19:24:29.587Z,3.30
2019-05-23T19:26:57.967Z,3.30
2019-05-23T19:29:26.275Z,3.10
2019-05-23T19:31:54.990Z,3.60
2019-05-23T19:34:23.427Z,3.50
2019-05-23T19:36:51.853Z,3.98
2019-05-23T19:39:20.965Z,3.75
2019-05-23T19:41:49.277Z,3.80
2019-05-23T19:44:17.564Z,3.60
2019-05-23T19:46:45.809Z,4.03
2019-05-23T19:49:14.165Z,3.80
2019-05-23T19:51:42.515Z,3.72
2019-05-23T19:54:10.835Z,3.52
2019-05-23T19:56:39.143Z,3.80
2019-05-23T19:59:07.419Z,4.20
2019-05-23T20:01:45.940Z,4.20
2019-05-23T20:04:15.072Z,3.77
2019-05-23T20:06:43.680Z,3.92
2019-05-23T20:09:15.181Z,3.92
2019-05-23T20:11:53.740Z,3.75
2019-05-23T20:14:13.492Z,4.00
2019-05-23T20:16:41.757Z,4.67
2019-05-23T20:19:10.002Z,4.03
2019-05-23T20:21:38.282Z,4.28
2019-05-23T20:24:06.516Z,3.80
2019-05-23T20:26:34.773Z,4.25
2019-05-23T20:29:03.567Z,4.70
2019-05-23T20:31:31.963Z,4.75
2019-05-23T20:34:00.394Z,4.10
2019-05-23T20:36:28.784Z,4.30
2019-05-23T20:38:57.051Z,4.40
2019-05-23T20:41:25.569Z,4.37
2019-05-23T20:43:53.827Z,4.05
2019-05-23T20:46:22.079Z,4.45
2019-05-23T20:48:50.454Z,4.15
2019-05-23T20:51:18.875Z,4.60
2019-05-23T20:53:53.006Z,4.97
2019-05-23T20:56:21.298Z,5.22
2019-05-23T20:58:49.531Z,4.58
2019-05-23T21:01:21.978Z,5.22
2019-05-23T21:03:50.894Z,4.67
2019-05-23T21:06:19.210Z,4.55
2019-05-23T21:08:47.443Z,4.60
2019-05-23T21:11:15.730Z,4.22
2019-05-23T21:13:46.789Z,4.60
2019-05-23T21:16:15.087Z,5.00
2019-05-23T21:18:43.357Z,4.92
2019-05-23T21:21:11.657Z,4.72
2019-05-23T21:23:39.924Z,5.17
2019-05-23T21:26:08.172Z,4.75
2019-05-23T21:28:36.412Z,4.62
2019-05-23T21:31:06.389Z,8.40
2019-05-23T21:33:34.663Z,6.10
2019-05-23T21:36:03.058Z,6.87
2019-05-23T21:38:31.431Z,6.08
2019-05-23T21:41:03.216Z,6.92
2019-05-23T21:43:32.772Z,5.53
2019-05-23T21:46:01.062Z,5.37
2019-05-23T21:48:29.290Z,7.85
2019-05-23T21:51:02.680Z,8.48
2019-05-23T21:53:30.923Z,6.72
2019-05-23T21:55:59.189Z,6.00
2019-05-23T21:58:27.425Z,5.45
2019-05-23T22:01:06.542Z,5.12
2019-05-23T22:03:56.264Z,5.22
2019-05-23T22:06:42.398Z,5.33
2019-05-23T22:09:12.305Z,5.47
2019-05-23T22:11:40.755Z,5.30
2019-05-23T22:14:09.062Z,5.17
2019-05-23T22:16:50.322Z,5.25
2019-05-23T22:22:27.135Z,4.78
2019-05-23T22:24:51.586Z,5.10
2019-05-23T22:27:29.254Z,5.28
2019-05-23T22:29:57.542Z,4.70
2019-05-23T22:32:28.559Z,5.15
2019-05-23T22:34:58.444Z,4.87
2019-05-23T22:37:26.804Z,5.08
2019-05-23T22:39:55.074Z,5.22
2019-05-23T22:42:23.680Z,4.80
2019-05-23T22:56:12.847Z,5.35
2019-05-23T22:58:41.133Z,5.55
2019-05-23T23:01:09.511Z,5.17
2019-05-23T23:03:37.769Z,5.70
2019-05-23T23:06:06.294Z,5.55
2019-05-23T23:08:34.678Z,4.85
2019-05-23T23:11:02.954Z,5.17
2019-05-23T23:13:38.705Z,5.53
2019-05-23T23:16:01.085Z,5.30
2019-05-23T23:18:29.364Z,5.10
2019-05-23T23:20:57.592Z,5.28
2019-05-23T23:23:25.883Z,5.30
2019-05-23T23:25:54.179Z,6.05
2019-05-23T23:28:22.468Z,4.87
2019-05-23T23:30:51.398Z,5.25
2019-05-23T23:33:19.647Z,5.58
2019-05-23T23:35:47.895Z,5.30
2019-05-23T23:38:16.162Z,5.25
2019-05-23T23:40:44.490Z,5.12
2019-05-23T23:43:12.727Z,5.37
2019-05-23T23:45:58.870Z,5.58
2019-05-23T23:48:44.968Z,6.35
2019-05-23T23:51:31.259Z,5.62
2019-05-23T23:54:17.732Z,5.30
2019-05-23T23:57:03.902Z,5.45
2019-05-23T23:59:31.464Z,5.70
